sensor_id;sensor_type;location;lat;lon;timestamp;P1;P2;P0
79038;PMS5003;68436;55.068;73.284;2023-07-24T00:00:47;4000.00;4000.00;4000.00
79038;PMS5003;68436;55.068;73.284;2023-07-24T00:03:12;4000.00;4000.00;4000.00
79038;PMS5003;68436;55.068;73.284;2023-07-24T00:05:47;4000.00;4000.00;4000.00
79038;PMS5003;68436;55.068;73.284;2023-07-24T00:08:12;4000.00;4000.00;4000.00
79038;PMS5003;68436;55.068;73.284;2023-07-24T00:10:47;4000.00;4000.00;4000.00
79038;PMS5003;68436;55.068;73.284;2023-07-24T00:13:13;4000.00;4000.00;4000.00
79038;PMS5003;68436;55.068;73.284;2023-07-24T00:15:47;4000.00;4000.00;4000.00
79038;PMS5003;68436;55.068;73.284;2023-07-24T00:18:12;4000.00;4000.00;4000.00
79038;PMS5003;68436;55.068;73.284;2023-07-24T00:20:47;4000.00;4000.00;4000.00
79038;PMS5003;68436;55.068;73.284;2023-07-24T00:23:12;4000.00;4000.00;4000.00
79038;PMS5003;68436;55.068;73.284;2023-07-24T00:25:47;4000.00;4000.00;4000.00
79038;PMS5003;68436;55.068;73.284;2023-07-24T00:28:12;4000.00;4000.00;4000.00
79038;PMS5003;68436;55.068;73.284;2023-07-24T00:30:47;4000.00;4000.00;4000.00
79038;PMS5003;68436;55.068;73.284;2023-07-24T00:33:12;4000.00;4000.00;4000.00
79038;PMS5003;68436;55.068;73.284;2023-07-24T00:35:47;4000.00;4000.00;4000.00
79038;PMS5003;68436;55.068;73.284;2023-07-24T00:38:13;4000.00;4000.00;4000.00
79038;PMS5003;68436;55.068;73.284;2023-07-24T00:40:47;4000.00;4000.00;4000.00
79038;PMS5003;68436;55.068;73.284;2023-07-24T00:43:12;4000.00;4000.00;4000.00
79038;PMS5003;68436;55.068;73.284;2023-07-24T00:45:47;4000.00;4000.00;4000.00
79038;PMS5003;68436;55.068;73.284;2023-07-24T00:48:14;4000.00;4000.00;4000.00
79038;PMS5003;68436;55.068;73.284;2023-07-24T00:50:47;4000.00;4000.00;4000.00
79038;PMS5003;68436;55.068;73.284;2023-07-24T00:53:13;4000.00;4000.00;4000.00
79038;PMS5003;68436;55.068;73.284;2023-07-24T00:55:47;4000.00;4000.00;4000.00
79038;PMS5003;68436;55.068;73.284;2023-07-24T00:58:12;4000.00;4000.00;4000.00
79038;PMS5003;68436;55.068;73.284;2023-07-24T01:00:46;4000.00;4000.00;4000.00
79038;PMS5003;68436;55.068;73.284;2023-07-24T01:03:13;4000.00;4000.00;4000.00
79038;PMS5003;68436;55.068;73.284;2023-07-24T01:05:46;4000.00;4000.00;4000.00
79038;PMS5003;68436;55.068;73.284;2023-07-24T01:08:12;4000.00;4000.00;4000.00
79038;PMS5003;68436;55.068;73.284;2023-07-24T01:10:46;4000.00;4000.00;4000.00
79038;PMS5003;68436;55.068;73.284;2023-07-24T01:13:17;4000.00;4000.00;4000.00
79038;PMS5003;68436;55.068;73.284;2023-07-24T01:15:56;4000.00;4000.00;4000.00
79038;PMS5003;68436;55.068;73.284;2023-07-24T01:18:26;4000.00;4000.00;4000.00
79038;PMS5003;68436;55.068;73.284;2023-07-24T01:25:56;4000.00;4000.00;4000.00
79038;PMS5003;68436;55.068;73.284;2023-07-24T01:28:23;4000.00;4000.00;4000.00
79038;PMS5003;68436;55.068;73.284;2023-07-24T01:30:49;4000.00;4000.00;4000.00
79038;PMS5003;68436;55.068;73.284;2023-07-24T01:33:15;4000.00;4000.00;4000.00
79038;PMS5003;68436;55.068;73.284;2023-07-24T01:35:48;4000.00;4000.00;4000.00
79038;PMS5003;68436;55.068;73.284;2023-07-24T01:38:16;4000.00;4000.00;4000.00
79038;PMS5003;68436;55.068;73.284;2023-07-24T01:40:46;4000.00;4000.00;4000.00
79038;PMS5003;68436;55.068;73.284;2023-07-24T01:43:13;4000.00;4000.00;4000.00
79038;PMS5003;68436;55.068;73.284;2023-07-24T01:45:46;4000.00;4000.00;4000.00
79038;PMS5003;68436;55.068;73.284;2023-07-24T01:48:13;4000.00;4000.00;4000.00
79038;PMS5003;68436;55.068;73.284;2023-07-24T01:50:47;4000.00;4000.00;4000.00
79038;PMS5003;68436;55.068;73.284;2023-07-24T01:53:13;4000.00;4000.00;4000.00
79038;PMS5003;68436;55.068;73.284;2023-07-24T01:55:46;4000.00;4000.00;4000.00
79038;PMS5003;68436;55.068;73.284;2023-07-24T01:58:12;4000.00;4000.00;4000.00
79038;PMS5003;68436;55.068;73.284;2023-07-24T02:00:47;4000.00;4000.00;4000.00
79038;PMS5003;68436;55.068;73.284;2023-07-24T02:03:15;15.50;13.50;7.75
79038;PMS5003;68436;55.068;73.284;2023-07-24T02:05:49;21.00;18.50;14.00
79038;PMS5003;68436;55.068;73.284;2023-07-24T02:08:16;4000.00;4000.00;4000.00
79038;PMS5003;68436;55.068;73.284;2023-07-24T02:10:49;4000.00;4000.00;4000.00
79038;PMS5003;68436;55.068;73.284;2023-07-24T02:13:16;4000.00;4000.00;4000.00
79038;PMS5003;68436;55.068;73.284;2023-07-24T02:15:49;4000.00;4000.00;4000.00
79038;PMS5003;68436;55.068;73.284;2023-07-24T02:18:14;4000.00;4000.00;4000.00
79038;PMS5003;68436;55.068;73.284;2023-07-24T02:20:50;4000.00;4000.00;4000.00
79038;PMS5003;68436;55.068;73.284;2023-07-24T02:23:16;4000.00;4000.00;4000.00
79038;PMS5003;68436;55.068;73.284;2023-07-24T02:25:50;4000.00;4000.00;4000.00
79038;PMS5003;68436;55.068;73.284;2023-07-24T02:28:17;4000.00;4000.00;4000.00
79038;PMS5003;68436;55.068;73.284;2023-07-24T02:30:47;4000.00;4000.00;4000.00
79038;PMS5003;68436;55.068;73.284;2023-07-24T02:33:13;4000.00;4000.00;4000.00
79038;PMS5003;68436;55.068;73.284;2023-07-24T02:35:46;4000.00;4000.00;4000.00
79038;PMS5003;68436;55.068;73.284;2023-07-24T02:38:13;4000.00;4000.00;4000.00
79038;PMS5003;68436;55.068;73.284;2023-07-24T02:40:46;22.00;18.00;10.00
79038;PMS5003;68436;55.068;73.284;2023-07-24T02:43:13;4000.00;4000.00;4000.00
79038;PMS5003;68436;55.068;73.284;2023-07-24T02:45:46;4000.00;4000.00;4000.00
79038;PMS5003;68436;55.068;73.284;2023-07-24T02:48:12;4000.00;4000.00;4000.00
79038;PMS5003;68436;55.068;73.284;2023-07-24T02:50:49;4000.00;4000.00;4000.00
79038;PMS5003;68436;55.068;73.284;2023-07-24T02:53:15;4000.00;4000.00;4000.00
79038;PMS5003;68436;55.068;73.284;2023-07-24T02:55:46;4000.00;4000.00;4000.00
79038;PMS5003;68436;55.068;73.284;2023-07-24T02:58:15;4000.00;4000.00;4000.00
79038;PMS5003;68436;55.068;73.284;2023-07-24T03:00:46;4000.00;4000.00;4000.00
79038;PMS5003;68436;55.068;73.284;2023-07-24T03:03:12;4000.00;4000.00;4000.00
79038;PMS5003;68436;55.068;73.284;2023-07-24T03:05:46;32.00;28.00;19.67
79038;PMS5003;68436;55.068;73.284;2023-07-24T03:08:14;54.00;42.50;30.00
79038;PMS5003;68436;55.068;73.284;2023-07-24T03:10:46;28.00;25.00;16.00
79038;PMS5003;68436;55.068;73.284;2023-07-24T03:13:20;86.00;57.25;38.25
79038;PMS5003;68436;55.068;73.284;2023-07-24T03:15:56;59.50;42.50;17.00
79038;PMS5003;68436;55.068;73.284;2023-07-24T03:18:22;32.25;25.25;13.25
79038;PMS5003;68436;55.068;73.284;2023-07-24T03:20:49;95.67;63.00;23.00
79038;PMS5003;68436;55.068;73.284;2023-07-24T03:23:15;40.75;32.50;16.50
79038;PMS5003;68436;55.068;73.284;2023-07-24T03:25:46;31.50;25.50;11.00
79038;PMS5003;68436;55.068;73.284;2023-07-24T03:28:13;211.75;136.25;97.00
79038;PMS5003;68436;55.068;73.284;2023-07-24T03:30:46;74.00;60.00;32.00
79038;PMS5003;68436;55.068;73.284;2023-07-24T03:33:12;2184.00;2110.75;2050.50
79038;PMS5003;68436;55.068;73.284;2023-07-24T03:35:46;4000.00;4000.00;4000.00
79038;PMS5003;68436;55.068;73.284;2023-07-24T03:38:12;182.00;109.75;66.00
79038;PMS5003;68436;55.068;73.284;2023-07-24T03:40:46;2816.67;2764.67;2698.00
79038;PMS5003;68436;55.068;73.284;2023-07-24T03:43:13;4000.00;4000.00;4000.00
79038;PMS5003;68436;55.068;73.284;2023-07-24T03:45:46;4000.00;4000.00;4000.00
79038;PMS5003;68436;55.068;73.284;2023-07-24T03:48:12;4000.00;4000.00;4000.00
79038;PMS5003;68436;55.068;73.284;2023-07-24T03:50:46;18.00;16.00;10.67
79038;PMS5003;68436;55.068;73.284;2023-07-24T03:53:12;15.00;14.00;10.00
79038;PMS5003;68436;55.068;73.284;2023-07-24T03:55:46;86.00;83.67;78.33
79038;PMS5003;68436;55.068;73.284;2023-07-24T03:58:12;11.00;9.75;7.25
79038;PMS5003;68436;55.068;73.284;2023-07-24T04:00:46;12.00;11.00;9.00
79038;PMS5003;68436;55.068;73.284;2023-07-24T04:03:12;14.00;12.00;7.00
79038;PMS5003;68436;55.068;73.284;2023-07-24T04:05:46;59.00;51.33;46.67
79038;PMS5003;68436;55.068;73.284;2023-07-24T04:08:12;16.00;14.75;11.75
79038;PMS5003;68436;55.068;73.284;2023-07-24T04:10:46;13.00;11.00;7.00
79038;PMS5003;68436;55.068;73.284;2023-07-24T04:13:13;10.00;9.00;6.00
79038;PMS5003;68436;55.068;73.284;2023-07-24T04:15:46;11.67;11.00;8.00
79038;PMS5003;68436;55.068;73.284;2023-07-24T04:18:12;13.25;11.50;7.75
79038;PMS5003;68436;55.068;73.284;2023-07-24T04:20:46;18.00;16.00;11.00
79038;PMS5003;68436;55.068;73.284;2023-07-24T04:23:12;16.00;15.00;10.00
79038;PMS5003;68436;55.068;73.284;2023-07-24T04:25:46;13.00;12.00;8.33
79038;PMS5003;68436;55.068;73.284;2023-07-24T04:28:14;18.00;16.00;10.00
79038;PMS5003;68436;55.068;73.284;2023-07-24T04:30:46;5.00;5.00;3.00
79038;PMS5003;68436;55.068;73.284;2023-07-24T04:33:12;32.25;28.50;20.50
79038;PMS5003;68436;55.068;73.284;2023-07-24T04:35:49;24.00;21.00;15.00
79038;PMS5003;68436;55.068;73.284;2023-07-24T04:38:15;20.00;13.50;8.75
79038;PMS5003;68436;55.068;73.284;2023-07-24T04:40:46;14.00;12.00;8.00
79038;PMS5003;68436;55.068;73.284;2023-07-24T04:43:12;16.50;14.25;10.00
79038;PMS5003;68436;55.068;73.284;2023-07-24T04:45:46;19.33;17.00;12.33
79038;PMS5003;68436;55.068;73.284;2023-07-24T04:48:12;9.75;9.00;7.00
79038;PMS5003;68436;55.068;73.284;2023-07-24T04:50:46;13.00;12.00;9.00
79038;PMS5003;68436;55.068;73.284;2023-07-24T04:53:12;12.00;11.00;8.00
79038;PMS5003;68436;55.068;73.284;2023-07-24T04:55:47;19.33;17.00;11.67
79038;PMS5003;68436;55.068;73.284;2023-07-24T04:58:13;14.00;12.00;8.00
79038;PMS5003;68436;55.068;73.284;2023-07-24T05:00:46;11.00;11.00;8.00
79038;PMS5003;68436;55.068;73.284;2023-07-24T05:03:12;14.00;13.00;10.00
79038;PMS5003;68436;55.068;73.284;2023-07-24T05:05:55;10.00;9.00;6.00
79038;PMS5003;68436;55.068;73.284;2023-07-24T05:08:22;12.00;11.00;8.00
79038;PMS5003;68436;55.068;73.284;2023-07-24T05:11:00;10.00;9.75;7.00
79038;PMS5003;68436;55.068;73.284;2023-07-24T05:13:26;12.50;10.00;8.00
79038;PMS5003;68436;55.068;73.284;2023-07-24T05:15:52;15.00;13.00;9.00
79038;PMS5003;68436;55.068;73.284;2023-07-24T05:18:18;9.00;8.00;6.00
79038;PMS5003;68436;55.068;73.284;2023-07-24T05:20:47;12.00;10.50;8.00
79038;PMS5003;68436;55.068;73.284;2023-07-24T05:23:13;17.00;16.00;12.00
79038;PMS5003;68436;55.068;73.284;2023-07-24T05:25:46;11.00;9.00;7.00
79038;PMS5003;68436;55.068;73.284;2023-07-24T05:28:12;10.00;9.00;5.75
79038;PMS5003;68436;55.068;73.284;2023-07-24T05:30:46;8.00;8.00;6.00
79038;PMS5003;68436;55.068;73.284;2023-07-24T05:33:13;16.25;14.25;9.00
79038;PMS5003;68436;55.068;73.284;2023-07-24T05:35:48;11.67;10.00;7.00
79038;PMS5003;68436;55.068;73.284;2023-07-24T05:38:14;12.25;10.75;7.75
79038;PMS5003;68436;55.068;73.284;2023-07-24T05:40:53;11.50;11.00;8.00
79038;PMS5003;68436;55.068;73.284;2023-07-24T05:43:19;12.50;11.25;9.00
79038;PMS5003;68436;55.068;73.284;2023-07-24T05:45:46;18.00;16.50;10.00
79038;PMS5003;68436;55.068;73.284;2023-07-24T05:48:12;25.00;23.00;16.00
79038;PMS5003;68436;55.068;73.284;2023-07-24T05:50:46;7.00;6.67;5.00
79038;PMS5003;68436;55.068;73.284;2023-07-24T05:53:13;16.75;15.25;11.50
79038;PMS5003;68436;55.068;73.284;2023-07-24T05:55:46;10.00;9.00;7.00
79038;PMS5003;68436;55.068;73.284;2023-07-24T05:58:12;6.00;6.00;5.00
79038;PMS5003;68436;55.068;73.284;2023-07-24T06:00:46;8.67;7.67;5.00
79038;PMS5003;68436;55.068;73.284;2023-07-24T06:03:12;9.75;8.50;5.75
79038;PMS5003;68436;55.068;73.284;2023-07-24T06:05:50;10.33;9.00;6.33
79038;PMS5003;68436;55.068;73.284;2023-07-24T06:08:16;10.00;9.00;6.00
79038;PMS5003;68436;55.068;73.284;2023-07-24T06:10:47;7.00;7.00;5.00
79038;PMS5003;68436;55.068;73.284;2023-07-24T06:13:14;7.00;7.00;5.00
79038;PMS5003;68436;55.068;73.284;2023-07-24T06:15:47;9.00;8.00;5.00
79038;PMS5003;68436;55.068;73.284;2023-07-24T06:18:14;9.00;8.00;6.00
79038;PMS5003;68436;55.068;73.284;2023-07-24T06:20:47;19.00;17.00;12.00
79038;PMS5003;68436;55.068;73.284;2023-07-24T06:23:15;18.00;16.75;12.00
79038;PMS5003;68436;55.068;73.284;2023-07-24T06:25:46;5.00;5.00;3.00
79038;PMS5003;68436;55.068;73.284;2023-07-24T06:28:12;9.00;8.00;6.00
79038;PMS5003;68436;55.068;73.284;2023-07-24T06:30:46;7.00;8.00;6.00
79038;PMS5003;68436;55.068;73.284;2023-07-24T06:33:12;12.50;10.00;7.00
79038;PMS5003;68436;55.068;73.284;2023-07-24T06:35:49;11.00;9.67;7.00
79038;PMS5003;68436;55.068;73.284;2023-07-24T06:38:16;6.00;6.00;5.00
79038;PMS5003;68436;55.068;73.284;2023-07-24T06:40:46;21.00;19.50;14.50
79038;PMS5003;68436;55.068;73.284;2023-07-24T06:43:12;21.00;19.00;14.00
79038;PMS5003;68436;55.068;73.284;2023-07-24T06:45:46;28.00;24.67;16.67
79038;PMS5003;68436;55.068;73.284;2023-07-24T06:48:12;17.75;16.00;11.25
79038;PMS5003;68436;55.068;73.284;2023-07-24T06:50:46;11.67;10.33;7.00
79038;PMS5003;68436;55.068;73.284;2023-07-24T06:53:12;16.75;14.50;10.50
79038;PMS5003;68436;55.068;73.284;2023-07-24T06:55:46;17.67;13.67;8.00
79038;PMS5003;68436;55.068;73.284;2023-07-24T06:58:14;14.00;12.00;9.00
79038;PMS5003;68436;55.068;73.284;2023-07-24T07:00:46;7.00;6.00;4.00
79038;PMS5003;68436;55.068;73.284;2023-07-24T07:03:12;11.00;10.00;8.00
79038;PMS5003;68436;55.068;73.284;2023-07-24T07:05:46;12.00;11.00;8.00
79038;PMS5003;68436;55.068;73.284;2023-07-24T07:08:18;10.50;10.50;7.00
79038;PMS5003;68436;55.068;73.284;2023-07-24T07:11:03;7.33;7.00;4.33
79038;PMS5003;68436;55.068;73.284;2023-07-24T07:13:32;5.00;5.00;4.00
79038;PMS5003;68436;55.068;73.284;2023-07-24T07:15:58;20.25;18.00;10.75
79038;PMS5003;68436;55.068;73.284;2023-07-24T07:18:24;15.75;12.75;8.25
79038;PMS5003;68436;55.068;73.284;2023-07-24T07:20:51;6.25;6.00;4.00
79038;PMS5003;68436;55.068;73.284;2023-07-24T07:23:17;13.00;12.00;9.00
79038;PMS5003;68436;55.068;73.284;2023-07-24T07:25:46;14.00;13.00;9.50
79038;PMS5003;68436;55.068;73.284;2023-07-24T07:28:13;10.00;9.25;6.00
79038;PMS5003;68436;55.068;73.284;2023-07-24T07:30:46;11.67;10.67;7.00
79038;PMS5003;68436;55.068;73.284;2023-07-24T07:33:12;10.00;9.00;7.00
79038;PMS5003;68436;55.068;73.284;2023-07-24T07:35:47;14.00;13.00;9.00
79038;PMS5003;68436;55.068;73.284;2023-07-24T07:38:13;12.00;10.25;7.00
79038;PMS5003;68436;55.068;73.284;2023-07-24T07:40:46;15.67;14.00;9.00
79038;PMS5003;68436;55.068;73.284;2023-07-24T07:43:12;11.25;11.00;7.00
79038;PMS5003;68436;55.068;73.284;2023-07-24T07:45:47;15.00;14.00;10.00
79038;PMS5003;68436;55.068;73.284;2023-07-24T07:48:13;12.00;10.75;8.00
79038;PMS5003;68436;55.068;73.284;2023-07-24T07:50:49;15.00;13.00;9.00
79038;PMS5003;68436;55.068;73.284;2023-07-24T07:53:15;17.00;15.75;11.00
79038;PMS5003;68436;55.068;73.284;2023-07-24T07:55:54;20.00;18.00;11.00
79038;PMS5003;68436;55.068;73.284;2023-07-24T07:58:20;14.50;14.00;9.00
79038;PMS5003;68436;55.068;73.284;2023-07-24T08:00:46;16.00;14.50;9.00
79038;PMS5003;68436;55.068;73.284;2023-07-24T08:03:12;13.50;12.00;8.00
79038;PMS5003;68436;55.068;73.284;2023-07-24T08:05:46;15.00;14.00;10.00
79038;PMS5003;68436;55.068;73.284;2023-07-24T08:08:13;21.00;17.50;11.00
79038;PMS5003;68436;55.068;73.284;2023-07-24T08:10:46;15.00;13.00;8.67
79038;PMS5003;68436;55.068;73.284;2023-07-24T08:13:13;16.00;15.00;10.75
79038;PMS5003;68436;55.068;73.284;2023-07-24T08:15:46;18.00;16.00;10.00
79038;PMS5003;68436;55.068;73.284;2023-07-24T08:18:12;20.00;17.00;10.00
79038;PMS5003;68436;55.068;73.284;2023-07-24T08:20:46;14.33;13.33;10.00
79038;PMS5003;68436;55.068;73.284;2023-07-24T08:23:12;22.50;18.50;12.00
79038;PMS5003;68436;55.068;73.284;2023-07-24T08:25:53;14.00;13.00;9.00
79038;PMS5003;68436;55.068;73.284;2023-07-24T08:28:19;14.00;13.00;8.00
79038;PMS5003;68436;55.068;73.284;2023-07-24T08:30:55;14.00;13.00;8.00
79038;PMS5003;68436;55.068;73.284;2023-07-24T08:33:23;14.25;13.25;10.00
79038;PMS5003;68436;55.068;73.284;2023-07-24T08:36:05;13.33;12.33;8.67
79038;PMS5003;68436;55.068;73.284;2023-07-24T08:38:32;18.75;17.00;11.00
79038;PMS5003;68436;55.068;73.284;2023-07-24T08:41:01;19.00;16.00;10.00
79038;PMS5003;68436;55.068;73.284;2023-07-24T08:43:28;20.00;18.00;13.00
79038;PMS5003;68436;55.068;73.284;2023-07-24T08:45:56;18.00;16.50;11.75
79038;PMS5003;68436;55.068;73.284;2023-07-24T08:48:23;17.00;15.00;11.00
79038;PMS5003;68436;55.068;73.284;2023-07-24T08:50:50;18.00;17.00;13.00
79038;PMS5003;68436;55.068;73.284;2023-07-24T08:53:18;12.00;11.50;8.00
79038;PMS5003;68436;55.068;73.284;2023-07-24T08:55:47;43.00;35.00;23.00
79038;PMS5003;68436;55.068;73.284;2023-07-24T08:58:15;15.75;14.75;10.50
79038;PMS5003;68436;55.068;73.284;2023-07-24T09:00:46;29.00;24.00;15.00
79038;PMS5003;68436;55.068;73.284;2023-07-24T09:03:12;35.00;28.25;19.00
79038;PMS5003;68436;55.068;73.284;2023-07-24T09:05:46;16.00;14.00;10.00
79038;PMS5003;68436;55.068;73.284;2023-07-24T09:08:30;22.00;19.00;12.00
79038;PMS5003;68436;55.068;73.284;2023-07-24T09:10:57;32.00;26.00;16.67
79038;PMS5003;68436;55.068;73.284;2023-07-24T09:13:24;38.75;30.50;20.00
79038;PMS5003;68436;55.068;73.284;2023-07-24T09:15:50;33.67;27.67;17.67
79038;PMS5003;68436;55.068;73.284;2023-07-24T09:18:15;24.25;20.00;13.00
79038;PMS5003;68436;55.068;73.284;2023-07-24T09:20:47;19.00;16.50;13.00
79038;PMS5003;68436;55.068;73.284;2023-07-24T09:23:13;28.00;24.00;15.00
79038;PMS5003;68436;55.068;73.284;2023-07-24T09:25:46;36.00;28.33;17.00
79038;PMS5003;68436;55.068;73.284;2023-07-24T09:28:15;33.00;28.25;19.00
79038;PMS5003;68436;55.068;73.284;2023-07-24T09:30:57;66.50;48.00;27.50
79038;PMS5003;68436;55.068;73.284;2023-07-24T09:33:44;25.00;23.00;16.00
79038;PMS5003;68436;55.068;73.284;2023-07-24T09:36:09;27.00;23.00;15.00
79038;PMS5003;68436;55.068;73.284;2023-07-24T09:38:36;34.00;26.00;16.00
79038;PMS5003;68436;55.068;73.284;2023-07-24T09:41:03;21.67;19.00;12.67
79038;PMS5003;68436;55.068;73.284;2023-07-24T09:43:30;39.25;31.75;20.25
79038;PMS5003;68436;55.068;73.284;2023-07-24T09:48:23;58.00;42.00;24.00
79038;PMS5003;68436;55.068;73.284;2023-07-24T09:50:54;39.67;31.00;19.00
79038;PMS5003;68436;55.068;73.284;2023-07-24T09:55:49;15.00;13.50;9.00
79038;PMS5003;68436;55.068;73.284;2023-07-24T09:58:16;16.00;15.00;11.00
79038;PMS5003;68436;55.068;73.284;2023-07-24T10:00:46;28.00;23.50;15.50
79038;PMS5003;68436;55.068;73.284;2023-07-24T10:03:14;16.00;15.00;11.00
79038;PMS5003;68436;55.068;73.284;2023-07-24T10:05:47;18.00;17.00;12.00
79038;PMS5003;68436;55.068;73.284;2023-07-24T10:08:17;18.50;17.00;12.00
79038;PMS5003;68436;55.068;73.284;2023-07-24T10:10:46;17.00;16.50;12.00
79038;PMS5003;68436;55.068;73.284;2023-07-24T10:13:16;19.00;17.00;12.00
79038;PMS5003;68436;55.068;73.284;2023-07-24T10:15:47;23.00;21.00;14.00
79038;PMS5003;68436;55.068;73.284;2023-07-24T10:18:15;23.00;21.00;14.00
79038;PMS5003;68436;55.068;73.284;2023-07-24T10:20:46;15.00;15.00;11.00
79038;PMS5003;68436;55.068;73.284;2023-07-24T10:23:15;15.00;14.00;10.00
79038;PMS5003;68436;55.068;73.284;2023-07-24T10:25:49;28.00;24.00;15.50
79038;PMS5003;68436;55.068;73.284;2023-07-24T10:28:15;55.25;40.25;24.00
79038;PMS5003;68436;55.068;73.284;2023-07-24T10:30:54;45.50;37.00;25.00
79038;PMS5003;68436;55.068;73.284;2023-07-24T10:33:20;59.50;46.50;30.25
79038;PMS5003;68436;55.068;73.284;2023-07-24T10:35:52;23.00;20.00;14.00
79038;PMS5003;68436;55.068;73.284;2023-07-24T10:38:18;33.00;26.00;16.00
79038;PMS5003;68436;55.068;73.284;2023-07-24T10:40:47;20.00;17.00;12.00
79038;PMS5003;68436;55.068;73.284;2023-07-24T10:43:19;31.00;26.00;17.00
79038;PMS5003;68436;55.068;73.284;2023-07-24T10:45:50;35.00;30.00;19.00
79038;PMS5003;68436;55.068;73.284;2023-07-24T10:48:18;20.50;18.00;13.00
79038;PMS5003;68436;55.068;73.284;2023-07-24T10:50:48;24.00;21.50;16.00
79038;PMS5003;68436;55.068;73.284;2023-07-24T10:53:18;24.00;22.00;15.00
79038;PMS5003;68436;55.068;73.284;2023-07-24T10:55:47;30.00;25.50;16.00
79038;PMS5003;68436;55.068;73.284;2023-07-24T10:58:13;36.00;31.50;20.00
79038;PMS5003;68436;55.068;73.284;2023-07-24T11:00:46;37.00;31.33;20.00
79038;PMS5003;68436;55.068;73.284;2023-07-24T11:03:13;24.00;23.00;16.00
79038;PMS5003;68436;55.068;73.284;2023-07-24T11:05:47;20.33;18.33;12.33
79038;PMS5003;68436;55.068;73.284;2023-07-24T11:08:16;38.50;33.00;22.00
79038;PMS5003;68436;55.068;73.284;2023-07-24T11:13:16;45.00;35.75;23.00
79038;PMS5003;68436;55.068;73.284;2023-07-24T11:15:47;42.00;36.00;23.00
79038;PMS5003;68436;55.068;73.284;2023-07-24T11:18:13;21.50;18.25;12.00
79038;PMS5003;68436;55.068;73.284;2023-07-24T11:20:48;15.00;13.00;9.00
79038;PMS5003;68436;55.068;73.284;2023-07-24T11:23:14;16.00;14.00;10.25
79038;PMS5003;68436;55.068;73.284;2023-07-24T11:25:46;39.00;32.00;21.00
79038;PMS5003;68436;55.068;73.284;2023-07-24T11:28:14;33.00;27.00;16.00
79038;PMS5003;68436;55.068;73.284;2023-07-24T11:30:46;41.00;34.00;21.00
79038;PMS5003;68436;55.068;73.284;2023-07-24T11:33:13;24.50;20.50;12.00
79038;PMS5003;68436;55.068;73.284;2023-07-24T11:35:46;38.00;31.00;21.00
79038;PMS5003;68436;55.068;73.284;2023-07-24T11:38:13;23.00;21.00;14.00
79038;PMS5003;68436;55.068;73.284;2023-07-24T11:40:46;20.00;17.00;11.00
79038;PMS5003;68436;55.068;73.284;2023-07-24T11:45:47;38.00;31.00;19.00
79038;PMS5003;68436;55.068;73.284;2023-07-24T11:48:23;20.00;17.00;12.00
79038;PMS5003;68436;55.068;73.284;2023-07-24T11:50:50;21.67;20.00;13.00
79038;PMS5003;68436;55.068;73.284;2023-07-24T11:53:23;17.00;14.00;8.00
79038;PMS5003;68436;55.068;73.284;2023-07-24T11:55:50;18.67;15.33;10.33
79038;PMS5003;68436;55.068;73.284;2023-07-24T11:58:17;16.00;14.00;9.00
79038;PMS5003;68436;55.068;73.284;2023-07-24T12:00:47;12.00;11.00;7.00
79038;PMS5003;68436;55.068;73.284;2023-07-24T12:03:14;14.00;12.00;8.00
79038;PMS5003;68436;55.068;73.284;2023-07-24T12:05:46;15.00;14.00;10.00
79038;PMS5003;68436;55.068;73.284;2023-07-24T12:08:13;16.50;14.00;11.00
79038;PMS5003;68436;55.068;73.284;2023-07-24T12:10:46;16.00;15.00;11.00
79038;PMS5003;68436;55.068;73.284;2023-07-24T12:13:12;14.00;13.00;9.00
79038;PMS5003;68436;55.068;73.284;2023-07-24T12:15:46;17.33;15.33;11.00
79038;PMS5003;68436;55.068;73.284;2023-07-24T12:18:32;23.00;20.00;13.00
79038;PMS5003;68436;55.068;73.284;2023-07-24T12:20:58;17.00;16.00;12.00
79038;PMS5003;68436;55.068;73.284;2023-07-24T12:23:24;18.00;16.00;10.00
79038;PMS5003;68436;55.068;73.284;2023-07-24T12:25:50;16.00;14.00;10.00
79038;PMS5003;68436;55.068;73.284;2023-07-24T12:28:16;15.00;14.00;10.00
79038;PMS5003;68436;55.068;73.284;2023-07-24T12:30:46;19.00;18.00;13.00
79038;PMS5003;68436;55.068;73.284;2023-07-24T12:33:14;21.00;20.00;13.75
79038;PMS5003;68436;55.068;73.284;2023-07-24T12:35:46;19.00;17.00;12.00
79038;PMS5003;68436;55.068;73.284;2023-07-24T12:38:12;20.00;19.00;13.50
79038;PMS5003;68436;55.068;73.284;2023-07-24T12:40:46;21.00;19.00;13.00
79038;PMS5003;68436;55.068;73.284;2023-07-24T12:43:14;18.00;17.00;12.00
79038;PMS5003;68436;55.068;73.284;2023-07-24T12:45:46;16.50;15.00;11.00
79038;PMS5003;68436;55.068;73.284;2023-07-24T12:48:12;19.00;17.00;12.00
79038;PMS5003;68436;55.068;73.284;2023-07-24T12:50:46;22.00;19.00;13.00
79038;PMS5003;68436;55.068;73.284;2023-07-24T12:53:12;16.00;15.50;12.00
79038;PMS5003;68436;55.068;73.284;2023-07-24T12:55:46;16.00;15.00;11.00
79038;PMS5003;68436;55.068;73.284;2023-07-24T12:58:13;21.50;19.50;13.00
79038;PMS5003;68436;55.068;73.284;2023-07-24T13:00:46;28.00;25.67;18.00
79038;PMS5003;68436;55.068;73.284;2023-07-24T13:03:12;24.00;22.75;16.00
79038;PMS5003;68436;55.068;73.284;2023-07-24T13:05:47;16.00;14.00;10.00
79038;PMS5003;68436;55.068;73.284;2023-07-24T13:08:13;17.00;16.00;12.00
79038;PMS5003;68436;55.068;73.284;2023-07-24T13:10:46;19.00;17.00;12.00
79038;PMS5003;68436;55.068;73.284;2023-07-24T13:13:12;16.00;15.00;10.50
79038;PMS5003;68436;55.068;73.284;2023-07-24T13:15:46;19.00;17.00;12.00
79038;PMS5003;68436;55.068;73.284;2023-07-24T13:18:12;15.50;14.75;11.00
79038;PMS5003;68436;55.068;73.284;2023-07-24T13:20:46;19.00;17.00;12.00
79038;PMS5003;68436;55.068;73.284;2023-07-24T13:23:12;17.00;15.00;9.75
79038;PMS5003;68436;55.068;73.284;2023-07-24T13:25:46;14.00;13.00;9.67
79038;PMS5003;68436;55.068;73.284;2023-07-24T13:28:12;12.25;12.00;9.00
79038;PMS5003;68436;55.068;73.284;2023-07-24T13:30:46;12.00;11.00;8.00
79038;PMS5003;68436;55.068;73.284;2023-07-24T13:33:12;13.25;12.25;9.00
79038;PMS5003;68436;55.068;73.284;2023-07-24T13:35:46;19.00;18.33;12.33
79038;PMS5003;68436;55.068;73.284;2023-07-24T13:38:12;16.00;15.00;10.00
79038;PMS5003;68436;55.068;73.284;2023-07-24T13:40:46;15.00;14.00;11.00
79038;PMS5003;68436;55.068;73.284;2023-07-24T13:43:12;10.00;9.00;7.00
79038;PMS5003;68436;55.068;73.284;2023-07-24T13:45:46;13.00;12.00;9.00
79038;PMS5003;68436;55.068;73.284;2023-07-24T13:48:12;13.00;12.00;8.25
79038;PMS5003;68436;55.068;73.284;2023-07-24T13:50:46;17.00;15.00;10.00
79038;PMS5003;68436;55.068;73.284;2023-07-24T13:53:12;11.00;10.25;8.00